Flight Track Log - Related Links

Times and Time Zones

All times are in EDT time to prevent confusion due to time zone crossing. See the SWA4963 flight status page for this flight to view local times or setup timezone preferences in your user account.

Time Position Orientation Groundspeed Altitude Reporting Facility
EDT Latitude Longitude Course Direction KTS MPH feet Rate Location/Type
Fri 08:40:43 PM 39.1436 -76.7156 93° East 205 236 2,800  Level Washington Center
Fri 08:41:43 PM 39.1403 -76.6325 93° East 211 243 5,300 2,975 Climbing Washington Center
Fri 08:42:44 PM 39.1411 -76.5308 89° East 232 267 8,800 3,126 Climbing Washington Center
Fri 08:43:42 PM 39.1439 -76.4211 88° East 259 298 11,500 3,153 Climbing Washington Center
Fri 08:44:42 PM 39.1469 -76.2900 88° East 305 351 15,000 3,200 Climbing Washington Center
Fri 08:45:42 PM 39.1600 -76.1536 83° East 342 394 17,900 2,975 Climbing Washington Center
Fri 08:46:43 PM 39.1772 -76.0172 81° East 375 432 21,000 2,705 Climbing Washington Center
Fri 08:47:44 PM 39.2028 -75.8700 77° East 393 452 23,400 2,521 Climbing Washington Center
Fri 08:48:42 PM 39.2842 -75.7658 45° Northeast 399 459 26,000 2,370 Climbing Washington Center
Fri 08:49:43 PM 39.3781 -75.6747 37° Northeast 399 459 28,100 2,016 Climbing Washington Center
Fri 08:50:44 PM 39.4803 -75.5889 33° Northeast 410 472 30,100 2,269 Climbing Washington Center
Fri 08:51:42 PM 39.5781 -75.5000 35° Northeast 426 490 32,600 2,106 Climbing Washington Center
Fri 08:53:52 PM 39.7814 -75.3306 33° Northeast 419 482 36,700 1,382 Climbing New York Center
Fri 08:54:53 PM 39.8786 -75.2478 33° Northeast 419 482 37,000 148 Climbing New York Center
Fri 08:55:54 PM 39.9756 -75.1592 35° Northeast 414 476 37,000  Level New York Center
Fri 08:56:54 PM 40.0706 -75.0728 35° Northeast 414 476 37,000  Level New York Center
Fri 08:57:52 PM 40.1631 -74.9917 34° Northeast 414 476 37,000  Level New York Center
Fri 08:58:52 PM 40.2619 -74.9106 32° Northeast 414 476 37,000  Level New York Center
Fri 08:59:54 PM 40.3678 -74.8597 20° North 407 468 37,000  Level New York Center
Fri 09:00:52 PM 40.4778 -74.8117 18° North 407 468 37,000  Level New York Center
Fri 09:01:53 PM 40.5878 -74.7636 18° North 407 468 37,000  Level New York Center
Fri 09:02:54 PM 40.6978 -74.7153 18° North 407 468 37,000  Level New York Center
Fri 09:03:52 PM 40.8097 -74.6697 17° North 407 468 37,000  Level New York Center
Fri 09:04:52 PM 40.9197 -74.6211 18° North 407 468 37,000  Level New York Center
Fri 09:06:55 PM 41.1581 -74.5161 18° North 425 489 37,000  Level Boston Center
Fri 09:07:55 PM 41.2714 -74.4700 17° North 425 489 37,000  Level Boston Center
Fri 09:08:55 PM 41.3825 -74.4239 17° North 425 489 37,000  Level Boston Center
Fri 09:09:55 PM 41.4919 -74.3689 21° North 425 489 37,000 -248 Level Boston Center
Fri 09:10:56 PM 41.6094 -74.3225 16° North 430 495 36,500 -750 Descending Boston Center
Fri 09:11:55 PM 41.7186 -74.2731 19° North 424 488 35,500 -908 Descending Boston Center
Fri 09:12:55 PM 41.8131 -74.2339 17° North 418 481 34,700 -850 Descending Boston Center
Fri 09:13:55 PM 41.9264 -74.1786 20° North 418 481 33,800 -950 Descending Boston Center
Fri 09:14:55 PM 42.0053 -74.0578 49° Northeast 413 475 32,800 -950 Descending Boston Center
Fri 09:15:55 PM 42.0700 -73.9139 59° Northeast 418 481 31,900 -950 Descending Boston Center
Fri 09:16:55 PM 42.1361 -73.7700 58° Northeast 430 495 30,900 -1,150 Descending Boston Center
Fri 09:17:55 PM 42.2067 -73.6144 58° Northeast 446 513 29,600 -1,150 Descending Boston Center
Fri 09:18:55 PM 42.2686 -73.4753 59° Northeast 441 507 28,600 -900 Descending Boston Center
Fri 09:19:55 PM 42.3194 -73.3667 58° Northeast 436 502 27,800 -1,200 Descending Boston Center
Fri 09:20:55 PM 42.3894 -73.2047 60° Northeast 428 493 26,200 -1,600 Descending Boston Center
Fri 09:21:55 PM 42.4508 -73.0703 58° Northeast 422 486 24,600 -1,750 Descending Boston Center
Fri 09:22:55 PM 42.5078 -72.9386 60° Northeast 417 480 22,700 -1,750 Descending Boston Center
Fri 09:23:55 PM 42.5644 -72.8122 59° Northeast 407 468 21,100 -1,550 Descending Boston Center
Fri 09:24:55 PM 42.6211 -72.6800 60° Northeast 401 461 19,600 -1,700 Descending Boston Center
Fri 09:25:55 PM 42.6775 -72.5586 58° Northeast 395 455 17,700 -2,050 Descending Boston Center
Fri 09:26:55 PM 42.7317 -72.4372 59° Northeast 385 443 15,500 -2,100 Descending Boston Center
Fri 09:27:55 PM 42.7858 -72.3156 59° Northeast 375 432 13,500 -1,950 Descending Boston Center
Fri 09:28:55 PM 42.8003 -72.1994 80° East 349 402 11,600 -1,650 Descending Boston Center
Fri 09:29:55 PM 42.8125 -72.0581 83° East 344 396 10,200 -1,350 Descending Boston Center
Fri 09:30:55 PM 42.8100 -71.9506 92° East 318 366 8,900 -1,450 Descending Boston Center
Fri 09:31:55 PM 42.8011 -71.8289 96° East 305 351 7,300 -1,550 Descending Boston Center
Fri 09:32:55 PM 42.7942 -71.7328 96° East 287 330 5,800 -1,800 Descending Boston Center
Fri 09:33:55 PM 42.7892 -71.6197 93° East 275 316 3,700 -1,550 Descending Boston Center
Fri 09:34:55 PM 42.7864 -71.5292 92° East 275 316 2,700 -850 Descending Boston Center
Fri 09:35:55 PM 42.7856 -71.4331 91° East 244 281 2,000 -350 Descending Boston Center
Fri 09:36:55 PM 42.8100 -71.3703 62° Northeast 191 220 2,000 -150 Level Boston Center
Fri 09:37:55 PM 42.8497 -71.3839 346° North 124 143 1,700 -450 Descending Boston Center
Fri 09:38:55 PM 42.8814 -71.4031 336° Northwest 124 143 1,100 -700 Descending Boston Center
Fri 09:39:55 PM 42.9211 -71.4281 335° Northwest 135 155 300 -400 Descending Boston Center
Fri 09:40:55 PM 42.9525 -71.4472 336° Northwest 135 155 300 10,350 Level Boston Center
Fri 09:41:55 PM 42.9903 -71.4664 340° North 135 155 21,000 20,700 Climbing Boston Center
Fri 09:43:00 PM 42.9328 -71.4358 180° South  Level Estimated
Fri 09:50:00 PM 42.9328 -71.4358 180° South  Level Estimated
Fri 09:51:00 PM 42.9328 -71.4358 180° South  Level Estimated
Fri 09:52:00 PM 42.9328 -71.4358 180° South  Level Estimated
Fri 09:53:00 PM 42.9328 -71.4358 180° South  Level Estimated
Fri 09:54:00 PM 42.9328 -71.4358 180° South  Level Estimated
Fri 09:55:00 PM 42.9328 -71.4358 180° South  Level Estimated
Fri 09:56:00 PM 42.9328 -71.4358 180° South  Level Estimated
Fri 09:57:00 PM 42.9328 -71.4358 180° South  Level Estimated

Login

Don't have an account? Register now (free) for customized features, flight alerts, and more!